sensor_id;sensor_type;location;lat;lon;timestamp;P1;durP1;ratioP1;P2;durP2;ratioP2
69856;SDS011;57147;53.582;10.112;2023-02-28T00:00:34;7.15;;;3.60;;
69856;SDS011;57147;53.582;10.112;2023-02-28T00:05:37;13.82;;;6.55;;
69856;SDS011;57147;53.582;10.112;2023-02-28T00:10:38;7.68;;;4.13;;
69856;SDS011;57147;53.582;10.112;2023-02-28T00:15:41;8.38;;;4.28;;
69856;SDS011;57147;53.582;10.112;2023-02-28T00:20:45;9.75;;;4.13;;
69856;SDS011;57147;53.582;10.112;2023-02-28T00:25:46;8.52;;;3.75;;
69856;SDS011;57147;53.582;10.112;2023-02-28T00:30:49;7.45;;;4.00;;
69856;SDS011;57147;53.582;10.112;2023-02-28T00:35:50;7.30;;;4.22;;
69856;SDS011;57147;53.582;10.112;2023-02-28T00:40:53;6.85;;;4.15;;
69856;SDS011;57147;53.582;10.112;2023-02-28T00:45:56;8.05;;;4.10;;
69856;SDS011;57147;53.582;10.112;2023-02-28T00:50:57;7.00;;;3.85;;
69856;SDS011;57147;53.582;10.112;2023-02-28T00:55:58;9.65;;;4.75;;
69856;SDS011;57147;53.582;10.112;2023-02-28T01:01:02;8.57;;;5.57;;
69856;SDS011;57147;53.582;10.112;2023-02-28T01:06:04;7.90;;;3.42;;
69856;SDS011;57147;53.582;10.112;2023-02-28T01:11:09;6.93;;;3.60;;
69856;SDS011;57147;53.582;10.112;2023-02-28T01:16:14;9.80;;;4.13;;
69856;SDS011;57147;53.582;10.112;2023-02-28T01:21:19;7.68;;;3.97;;
69856;SDS011;57147;53.582;10.112;2023-02-28T01:26:25;7.18;;;3.70;;
69856;SDS011;57147;53.582;10.112;2023-02-28T01:31:29;6.57;;;3.67;;
69856;SDS011;57147;53.582;10.112;2023-02-28T01:36:30;9.00;;;4.22;;
69856;SDS011;57147;53.582;10.112;2023-02-28T01:41:34;7.78;;;4.53;;
69856;SDS011;57147;53.582;10.112;2023-02-28T01:46:38;8.25;;;4.72;;
69856;SDS011;57147;53.582;10.112;2023-02-28T01:51:39;7.72;;;3.28;;
69856;SDS011;57147;53.582;10.112;2023-02-28T01:56:43;8.05;;;3.40;;
69856;SDS011;57147;53.582;10.112;2023-02-28T02:01:49;7.82;;;4.13;;
69856;SDS011;57147;53.582;10.112;2023-02-28T02:06:56;7.57;;;3.50;;
69856;SDS011;57147;53.582;10.112;2023-02-28T02:12:01;7.75;;;3.65;;
69856;SDS011;57147;53.582;10.112;2023-02-28T02:17:21;7.65;;;3.85;;
69856;SDS011;57147;53.582;10.112;2023-02-28T02:28:22;7.47;;;3.53;;
69856;SDS011;57147;53.582;10.112;2023-02-28T02:33:48;8.05;;;3.70;;
69856;SDS011;57147;53.582;10.112;2023-02-28T02:39:19;6.93;;;3.53;;
69856;SDS011;57147;53.582;10.112;2023-02-28T02:44:30;8.02;;;4.03;;
69856;SDS011;57147;53.582;10.112;2023-02-28T02:49:35;8.10;;;3.85;;
69856;SDS011;57147;53.582;10.112;2023-02-28T02:54:40;6.65;;;4.82;;
69856;SDS011;57147;53.582;10.112;2023-02-28T03:04:45;9.43;;;4.53;;
69856;SDS011;57147;53.582;10.112;2023-02-28T03:09:54;9.93;;;4.25;;
69856;SDS011;57147;53.582;10.112;2023-02-28T03:15:05;10.85;;;5.30;;
69856;SDS011;57147;53.582;10.112;2023-02-28T03:20:13;12.23;;;5.47;;
69856;SDS011;57147;53.582;10.112;2023-02-28T03:25:34;9.50;;;4.85;;
69856;SDS011;57147;53.582;10.112;2023-02-28T03:30:41;8.27;;;4.65;;
69856;SDS011;57147;53.582;10.112;2023-02-28T03:35:48;8.70;;;5.63;;
69856;SDS011;57147;53.582;10.112;2023-02-28T03:40:57;10.43;;;6.57;;
69856;SDS011;57147;53.582;10.112;2023-02-28T03:46:04;8.40;;;4.97;;
69856;SDS011;57147;53.582;10.112;2023-02-28T03:51:08;7.85;;;4.07;;
69856;SDS011;57147;53.582;10.112;2023-02-28T03:56:16;7.95;;;5.25;;
69856;SDS011;57147;53.582;10.112;2023-02-28T04:01:20;7.50;;;4.22;;
69856;SDS011;57147;53.582;10.112;2023-02-28T04:06:25;6.82;;;4.13;;
69856;SDS011;57147;53.582;10.112;2023-02-28T04:11:29;7.13;;;4.03;;
69856;SDS011;57147;53.582;10.112;2023-02-28T04:16:34;8.40;;;3.72;;
69856;SDS011;57147;53.582;10.112;2023-02-28T04:21:38;8.93;;;3.58;;
69856;SDS011;57147;53.582;10.112;2023-02-28T04:26:44;9.50;;;7.32;;
69856;SDS011;57147;53.582;10.112;2023-02-28T04:31:46;8.13;;;3.55;;
69856;SDS011;57147;53.582;10.112;2023-02-28T04:36:47;9.02;;;4.35;;
69856;SDS011;57147;53.582;10.112;2023-02-28T04:41:50;7.18;;;5.00;;
69856;SDS011;57147;53.582;10.112;2023-02-28T04:46:51;6.00;;;3.83;;
69856;SDS011;57147;53.582;10.112;2023-02-28T04:51:52;8.27;;;4.43;;
69856;SDS011;57147;53.582;10.112;2023-02-28T04:56:55;9.32;;;3.95;;
69856;SDS011;57147;53.582;10.112;2023-02-28T05:01:56;8.45;;;4.25;;
69856;SDS011;57147;53.582;10.112;2023-02-28T05:06:57;7.60;;;5.32;;
69856;SDS011;57147;53.582;10.112;2023-02-28T05:12:00;8.18;;;3.92;;
69856;SDS011;57147;53.582;10.112;2023-02-28T05:17:01;9.18;;;4.97;;
69856;SDS011;57147;53.582;10.112;2023-02-28T05:22:01;7.70;;;4.38;;
69856;SDS011;57147;53.582;10.112;2023-02-28T05:27:04;6.82;;;4.15;;
69856;SDS011;57147;53.582;10.112;2023-02-28T05:32:05;9.23;;;5.03;;
69856;SDS011;57147;53.582;10.112;2023-02-28T05:37:06;9.15;;;5.30;;
69856;SDS011;57147;53.582;10.112;2023-02-28T05:42:13;13.75;;;5.28;;
69856;SDS011;57147;53.582;10.112;2023-02-28T05:47:14;17.00;;;8.75;;
69856;SDS011;57147;53.582;10.112;2023-02-28T05:52:14;15.98;;;8.02;;
69856;SDS011;57147;53.582;10.112;2023-02-28T05:57:17;15.88;;;7.05;;
69856;SDS011;57147;53.582;10.112;2023-02-28T06:02:18;15.70;;;7.75;;
69856;SDS011;57147;53.582;10.112;2023-02-28T06:07:19;13.27;;;6.55;;
69856;SDS011;57147;53.582;10.112;2023-02-28T06:12:22;11.18;;;5.78;;
69856;SDS011;57147;53.582;10.112;2023-02-28T06:17:23;11.68;;;5.85;;
69856;SDS011;57147;53.582;10.112;2023-02-28T06:22:23;12.60;;;6.57;;
69856;SDS011;57147;53.582;10.112;2023-02-28T06:27:27;9.82;;;5.57;;
69856;SDS011;57147;53.582;10.112;2023-02-28T06:32:27;11.57;;;5.82;;
69856;SDS011;57147;53.582;10.112;2023-02-28T06:37:28;9.25;;;5.65;;
69856;SDS011;57147;53.582;10.112;2023-02-28T06:42:33;13.75;;;6.82;;
69856;SDS011;57147;53.582;10.112;2023-02-28T06:47:33;10.23;;;5.80;;
69856;SDS011;57147;53.582;10.112;2023-02-28T06:52:34;13.23;;;6.03;;
69856;SDS011;57147;53.582;10.112;2023-02-28T06:57:38;8.45;;;4.30;;
69856;SDS011;57147;53.582;10.112;2023-02-28T07:02:39;8.15;;;4.97;;
69856;SDS011;57147;53.582;10.112;2023-02-28T07:07:39;9.23;;;5.32;;
69856;SDS011;57147;53.582;10.112;2023-02-28T07:12:42;10.77;;;5.05;;
69856;SDS011;57147;53.582;10.112;2023-02-28T07:17:43;12.43;;;5.38;;
69856;SDS011;57147;53.582;10.112;2023-02-28T07:22:44;9.10;;;4.93;;
69856;SDS011;57147;53.582;10.112;2023-02-28T07:27:47;10.48;;;4.82;;
69856;SDS011;57147;53.582;10.112;2023-02-28T07:32:47;11.40;;;5.38;;
69856;SDS011;57147;53.582;10.112;2023-02-28T07:37:48;8.00;;;5.03;;
69856;SDS011;57147;53.582;10.112;2023-02-28T07:42:52;10.80;;;4.75;;
69856;SDS011;57147;53.582;10.112;2023-02-28T07:47:52;7.53;;;4.38;;
69856;SDS011;57147;53.582;10.112;2023-02-28T07:52:53;8.32;;;6.05;;
69856;SDS011;57147;53.582;10.112;2023-02-28T07:57:57;9.45;;;5.40;;
69856;SDS011;57147;53.582;10.112;2023-02-28T08:02:57;11.45;;;7.07;;
69856;SDS011;57147;53.582;10.112;2023-02-28T08:07:58;8.45;;;5.18;;
69856;SDS011;57147;53.582;10.112;2023-02-28T08:13:01;9.82;;;6.05;;
69856;SDS011;57147;53.582;10.112;2023-02-28T08:18:05;9.02;;;6.25;;
69856;SDS011;57147;53.582;10.112;2023-02-28T08:23:05;9.85;;;5.78;;
69856;SDS011;57147;53.582;10.112;2023-02-28T08:28:09;13.68;;;9.07;;
69856;SDS011;57147;53.582;10.112;2023-02-28T08:33:09;8.73;;;6.07;;
69856;SDS011;57147;53.582;10.112;2023-02-28T08:38:10;10.15;;;5.90;;
69856;SDS011;57147;53.582;10.112;2023-02-28T08:43:13;11.23;;;4.95;;
69856;SDS011;57147;53.582;10.112;2023-02-28T08:48:14;6.53;;;4.47;;
69856;SDS011;57147;53.582;10.112;2023-02-28T08:53:15;9.52;;;4.75;;
69856;SDS011;57147;53.582;10.112;2023-02-28T08:58:18;7.55;;;4.03;;
69856;SDS011;57147;53.582;10.112;2023-02-28T09:03:19;9.20;;;4.28;;
69856;SDS011;57147;53.582;10.112;2023-02-28T09:08:20;8.63;;;3.42;;
69856;SDS011;57147;53.582;10.112;2023-02-28T09:13:23;10.00;;;3.42;;
69856;SDS011;57147;53.582;10.112;2023-02-28T09:18:24;6.50;;;3.35;;
69856;SDS011;57147;53.582;10.112;2023-02-28T09:23:25;6.88;;;2.72;;
69856;SDS011;57147;53.582;10.112;2023-02-28T09:28:29;7.10;;;4.65;;
69856;SDS011;57147;53.582;10.112;2023-02-28T09:33:30;7.47;;;5.78;;
69856;SDS011;57147;53.582;10.112;2023-02-28T09:38:31;8.43;;;3.97;;
69856;SDS011;57147;53.582;10.112;2023-02-28T09:43:35;8.23;;;4.18;;
69856;SDS011;57147;53.582;10.112;2023-02-28T09:48:39;6.70;;;2.28;;
69856;SDS011;57147;53.582;10.112;2023-02-28T09:53:44;4.40;;;2.35;;
69856;SDS011;57147;53.582;10.112;2023-02-28T09:58:48;5.78;;;3.42;;
69856;SDS011;57147;53.582;10.112;2023-02-28T10:03:54;6.03;;;4.38;;
69856;SDS011;57147;53.582;10.112;2023-02-28T10:08:58;6.63;;;3.22;;
69856;SDS011;57147;53.582;10.112;2023-02-28T10:14:05;4.85;;;1.92;;
69856;SDS011;57147;53.582;10.112;2023-02-28T10:19:13;3.90;;;2.28;;
69856;SDS011;57147;53.582;10.112;2023-02-28T10:24:19;6.43;;;2.65;;
69856;SDS011;57147;53.582;10.112;2023-02-28T10:29:25;5.45;;;2.05;;
69856;SDS011;57147;53.582;10.112;2023-02-28T10:34:26;6.47;;;2.45;;
69856;SDS011;57147;53.582;10.112;2023-02-28T10:39:34;5.55;;;2.20;;
69856;SDS011;57147;53.582;10.112;2023-02-28T10:44:39;6.80;;;3.83;;
69856;SDS011;57147;53.582;10.112;2023-02-28T10:49:45;5.03;;;2.35;;
69856;SDS011;57147;53.582;10.112;2023-02-28T10:54:47;6.20;;;2.60;;
69856;SDS011;57147;53.582;10.112;2023-02-28T10:59:53;6.18;;;2.88;;
69856;SDS011;57147;53.582;10.112;2023-02-28T11:05:25;6.90;;;2.83;;
69856;SDS011;57147;53.582;10.112;2023-02-28T11:10:29;4.25;;;2.33;;
69856;SDS011;57147;53.582;10.112;2023-02-28T11:15:33;5.70;;;2.03;;
69856;SDS011;57147;53.582;10.112;2023-02-28T11:20:35;4.45;;;2.22;;
69856;SDS011;57147;53.582;10.112;2023-02-28T11:25:39;3.97;;;2.15;;
69856;SDS011;57147;53.582;10.112;2023-02-28T11:30:50;6.03;;;1.48;;
69856;SDS011;57147;53.582;10.112;2023-02-28T11:36:03;4.15;;;2.97;;
69856;SDS011;57147;53.582;10.112;2023-02-28T11:41:20;3.90;;;2.00;;
69856;SDS011;57147;53.582;10.112;2023-02-28T11:46:33;6.30;;;2.88;;
69856;SDS011;57147;53.582;10.112;2023-02-28T11:51:42;5.60;;;2.28;;
69856;SDS011;57147;53.582;10.112;2023-02-28T11:56:49;5.55;;;3.15;;
69856;SDS011;57147;53.582;10.112;2023-02-28T12:02:01;4.72;;;2.45;;
69856;SDS011;57147;53.582;10.112;2023-02-28T12:12:25;3.13;;;1.67;;
69856;SDS011;57147;53.582;10.112;2023-02-28T12:17:41;6.00;;;2.58;;
69856;SDS011;57147;53.582;10.112;2023-02-28T12:22:52;2.17;;;1.45;;
69856;SDS011;57147;53.582;10.112;2023-02-28T12:27:59;5.45;;;1.58;;
69856;SDS011;57147;53.582;10.112;2023-02-28T12:33:04;3.30;;;3.00;;
69856;SDS011;57147;53.582;10.112;2023-02-28T12:38:09;3.15;;;2.08;;
69856;SDS011;57147;53.582;10.112;2023-02-28T12:43:13;3.38;;;3.08;;
69856;SDS011;57147;53.582;10.112;2023-02-28T12:48:21;2.35;;;1.70;;
69856;SDS011;57147;53.582;10.112;2023-02-28T12:53:28;4.13;;;1.92;;
69856;SDS011;57147;53.582;10.112;2023-02-28T12:58:37;4.40;;;2.25;;
69856;SDS011;57147;53.582;10.112;2023-02-28T13:03:48;3.65;;;0.90;;
69856;SDS011;57147;53.582;10.112;2023-02-28T13:09:09;2.53;;;1.38;;
69856;SDS011;57147;53.582;10.112;2023-02-28T13:14:17;2.90;;;2.00;;
69856;SDS011;57147;53.582;10.112;2023-02-28T13:19:25;2.88;;;1.35;;
69856;SDS011;57147;53.582;10.112;2023-02-28T13:24:38;2.97;;;1.92;;
69856;SDS011;57147;53.582;10.112;2023-02-28T13:29:41;3.25;;;1.63;;
69856;SDS011;57147;53.582;10.112;2023-02-28T13:35:12;3.22;;;2.03;;
69856;SDS011;57147;53.582;10.112;2023-02-28T13:40:27;3.50;;;1.35;;
69856;SDS011;57147;53.582;10.112;2023-02-28T13:45:31;4.45;;;4.10;;
69856;SDS011;57147;53.582;10.112;2023-02-28T13:50:35;5.35;;;1.95;;
69856;SDS011;57147;53.582;10.112;2023-02-28T13:55:37;6.72;;;2.90;;
69856;SDS011;57147;53.582;10.112;2023-02-28T14:00:48;4.07;;;1.75;;
69856;SDS011;57147;53.582;10.112;2023-02-28T14:06:18;3.63;;;1.25;;
69856;SDS011;57147;53.582;10.112;2023-02-28T14:11:25;4.10;;;2.40;;
69856;SDS011;57147;53.582;10.112;2023-02-28T14:16:35;7.82;;;4.05;;
69856;SDS011;57147;53.582;10.112;2023-02-28T14:21:43;4.72;;;2.38;;
69856;SDS011;57147;53.582;10.112;2023-02-28T14:26:55;3.08;;;1.45;;
69856;SDS011;57147;53.582;10.112;2023-02-28T14:32:10;3.78;;;1.52;;
69856;SDS011;57147;53.582;10.112;2023-02-28T14:37:23;3.70;;;1.48;;
69856;SDS011;57147;53.582;10.112;2023-02-28T14:42:31;6.13;;;3.53;;
69856;SDS011;57147;53.582;10.112;2023-02-28T14:47:33;3.60;;;2.03;;
69856;SDS011;57147;53.582;10.112;2023-02-28T14:52:38;2.58;;;1.92;;
69856;SDS011;57147;53.582;10.112;2023-02-28T14:57:39;4.32;;;1.40;;
69856;SDS011;57147;53.582;10.112;2023-02-28T15:02:41;2.80;;;1.77;;
69856;SDS011;57147;53.582;10.112;2023-02-28T15:07:45;2.67;;;1.65;;
69856;SDS011;57147;53.582;10.112;2023-02-28T15:12:49;3.30;;;1.80;;
69856;SDS011;57147;53.582;10.112;2023-02-28T15:17:53;3.85;;;2.08;;
69856;SDS011;57147;53.582;10.112;2023-02-28T15:23:00;3.78;;;1.58;;
69856;SDS011;57147;53.582;10.112;2023-02-28T15:28:01;5.43;;;2.13;;
69856;SDS011;57147;53.582;10.112;2023-02-28T15:33:05;5.13;;;1.45;;
69856;SDS011;57147;53.582;10.112;2023-02-28T15:38:21;6.55;;;2.03;;
69856;SDS011;57147;53.582;10.112;2023-02-28T15:43:28;2.85;;;1.27;;
69856;SDS011;57147;53.582;10.112;2023-02-28T15:48:31;3.60;;;1.75;;
69856;SDS011;57147;53.582;10.112;2023-02-28T15:53:39;3.13;;;2.33;;
69856;SDS011;57147;53.582;10.112;2023-02-28T15:58:50;5.32;;;4.63;;
69856;SDS011;57147;53.582;10.112;2023-02-28T16:03:54;3.05;;;1.30;;
69856;SDS011;57147;53.582;10.112;2023-02-28T16:09:02;4.10;;;2.33;;
69856;SDS011;57147;53.582;10.112;2023-02-28T16:14:15;4.55;;;2.47;;
69856;SDS011;57147;53.582;10.112;2023-02-28T16:19:19;5.97;;;4.72;;
69856;SDS011;57147;53.582;10.112;2023-02-28T16:24:42;5.80;;;3.45;;
69856;SDS011;57147;53.582;10.112;2023-02-28T16:29:43;8.10;;;4.05;;
69856;SDS011;57147;53.582;10.112;2023-02-28T16:34:50;10.30;;;2.70;;
69856;SDS011;57147;53.582;10.112;2023-02-28T16:39:53;2.10;;;1.58;;
69856;SDS011;57147;53.582;10.112;2023-02-28T16:44:54;6.00;;;3.22;;
69856;SDS011;57147;53.582;10.112;2023-02-28T16:49:55;4.43;;;2.13;;
69856;SDS011;57147;53.582;10.112;2023-02-28T16:54:59;5.10;;;2.05;;
69856;SDS011;57147;53.582;10.112;2023-02-28T16:59:59;6.65;;;2.75;;
69856;SDS011;57147;53.582;10.112;2023-02-28T17:05:00;7.25;;;3.08;;
69856;SDS011;57147;53.582;10.112;2023-02-28T17:10:04;11.90;;;7.22;;
69856;SDS011;57147;53.582;10.112;2023-02-28T17:15:13;7.93;;;4.30;;
69856;SDS011;57147;53.582;10.112;2023-02-28T17:20:15;7.63;;;3.58;;
69856;SDS011;57147;53.582;10.112;2023-02-28T17:25:20;6.78;;;3.63;;
69856;SDS011;57147;53.582;10.112;2023-02-28T17:30:23;6.93;;;3.80;;
69856;SDS011;57147;53.582;10.112;2023-02-28T17:35:24;8.10;;;3.75;;
69856;SDS011;57147;53.582;10.112;2023-02-28T17:40:28;10.77;;;4.00;;
69856;SDS011;57147;53.582;10.112;2023-02-28T17:45:29;10.60;;;4.97;;
69856;SDS011;57147;53.582;10.112;2023-02-28T17:50:30;18.55;;;11.57;;
69856;SDS011;57147;53.582;10.112;2023-02-28T17:55:34;15.90;;;9.98;;
69856;SDS011;57147;53.582;10.112;2023-02-28T18:00:35;12.57;;;11.27;;
69856;SDS011;57147;53.582;10.112;2023-02-28T18:05:35;10.63;;;5.95;;
69856;SDS011;57147;53.582;10.112;2023-02-28T18:10:45;6.32;;;5.55;;
69856;SDS011;57147;53.582;10.112;2023-02-28T18:15:45;7.72;;;4.43;;
69856;SDS011;57147;53.582;10.112;2023-02-28T18:20:46;8.93;;;5.32;;
69856;SDS011;57147;53.582;10.112;2023-02-28T18:25:49;8.85;;;5.32;;
69856;SDS011;57147;53.582;10.112;2023-02-28T18:30:50;10.55;;;4.97;;
69856;SDS011;57147;53.582;10.112;2023-02-28T18:35:54;9.80;;;6.00;;
69856;SDS011;57147;53.582;10.112;2023-02-28T18:40:59;8.73;;;6.05;;
69856;SDS011;57147;53.582;10.112;2023-02-28T18:46:02;9.60;;;8.75;;
69856;SDS011;57147;53.582;10.112;2023-02-28T18:51:07;11.90;;;5.13;;
69856;SDS011;57147;53.582;10.112;2023-02-28T18:56:12;11.38;;;6.32;;
69856;SDS011;57147;53.582;10.112;2023-02-28T19:01:14;11.80;;;6.18;;
69856;SDS011;57147;53.582;10.112;2023-02-28T19:06:16;14.10;;;5.13;;
69856;SDS011;57147;53.582;10.112;2023-02-28T19:11:20;11.35;;;8.02;;
69856;SDS011;57147;53.582;10.112;2023-02-28T19:16:21;13.70;;;7.10;;
69856;SDS011;57147;53.582;10.112;2023-02-28T19:21:23;10.70;;;6.28;;
69856;SDS011;57147;53.582;10.112;2023-02-28T19:26:26;13.27;;;6.80;;
69856;SDS011;57147;53.582;10.112;2023-02-28T19:31:27;12.68;;;6.78;;
69856;SDS011;57147;53.582;10.112;2023-02-28T19:36:28;14.13;;;7.55;;
69856;SDS011;57147;53.582;10.112;2023-02-28T19:41:31;14.80;;;8.02;;
69856;SDS011;57147;53.582;10.112;2023-02-28T19:46:32;18.00;;;9.88;;
69856;SDS011;57147;53.582;10.112;2023-02-28T19:51:32;15.00;;;8.82;;
69856;SDS011;57147;53.582;10.112;2023-02-28T19:56:36;14.68;;;8.88;;
69856;SDS011;57147;53.582;10.112;2023-02-28T20:01:36;15.60;;;8.38;;
69856;SDS011;57147;53.582;10.112;2023-02-28T20:06:37;17.13;;;8.55;;
69856;SDS011;57147;53.582;10.112;2023-02-28T20:11:41;14.20;;;8.25;;
69856;SDS011;57147;53.582;10.112;2023-02-28T20:16:42;19.35;;;8.55;;
69856;SDS011;57147;53.582;10.112;2023-02-28T20:21:43;17.95;;;10.23;;
69856;SDS011;57147;53.582;10.112;2023-02-28T20:26:46;15.35;;;8.85;;
69856;SDS011;57147;53.582;10.112;2023-02-28T20:31:47;17.30;;;9.15;;
69856;SDS011;57147;53.582;10.112;2023-02-28T20:36:49;19.70;;;11.70;;
69856;SDS011;57147;53.582;10.112;2023-02-28T20:41:55;17.88;;;10.00;;
69856;SDS011;57147;53.582;10.112;2023-02-28T20:47:01;17.92;;;9.88;;
69856;SDS011;57147;53.582;10.112;2023-02-28T20:52:03;15.57;;;8.90;;
69856;SDS011;57147;53.582;10.112;2023-02-28T20:57:06;22.38;;;12.00;;
69856;SDS011;57147;53.582;10.112;2023-02-28T21:02:08;21.27;;;11.55;;
69856;SDS011;57147;53.582;10.112;2023-02-28T21:07:13;21.10;;;11.85;;
69856;SDS011;57147;53.582;10.112;2023-02-28T21:12:16;22.65;;;12.82;;
69856;SDS011;57147;53.582;10.112;2023-02-28T21:17:17;18.75;;;11.20;;
69856;SDS011;57147;53.582;10.112;2023-02-28T21:22:17;17.88;;;11.30;;
69856;SDS011;57147;53.582;10.112;2023-02-28T21:27:21;20.95;;;11.13;;
69856;SDS011;57147;53.582;10.112;2023-02-28T21:32:21;20.45;;;11.95;;
69856;SDS011;57147;53.582;10.112;2023-02-28T21:37:23;24.25;;;13.30;;
69856;SDS011;57147;53.582;10.112;2023-02-28T21:42:26;23.08;;;12.75;;
69856;SDS011;57147;53.582;10.112;2023-02-28T21:47:27;24.88;;;15.02;;
69856;SDS011;57147;53.582;10.112;2023-02-28T21:52:28;22.90;;;12.10;;
69856;SDS011;57147;53.582;10.112;2023-02-28T21:57:31;26.75;;;12.23;;
69856;SDS011;57147;53.582;10.112;2023-02-28T22:02:32;24.55;;;12.63;;
69856;SDS011;57147;53.582;10.112;2023-02-28T22:07:33;24.60;;;12.65;;
69856;SDS011;57147;53.582;10.112;2023-02-28T22:12:36;22.63;;;11.75;;
69856;SDS011;57147;53.582;10.112;2023-02-28T22:17:37;25.30;;;13.05;;
69856;SDS011;57147;53.582;10.112;2023-02-28T22:22:39;26.60;;;12.18;;
69856;SDS011;57147;53.582;10.112;2023-02-28T22:27:42;25.33;;;14.15;;
69856;SDS011;57147;53.582;10.112;2023-02-28T22:32:43;21.98;;;12.90;;
69856;SDS011;57147;53.582;10.112;2023-02-28T22:37:46;23.02;;;13.00;;
69856;SDS011;57147;53.582;10.112;2023-02-28T22:42:49;23.08;;;13.07;;
69856;SDS011;57147;53.582;10.112;2023-02-28T22:47:50;23.85;;;13.30;;
69856;SDS011;57147;53.582;10.112;2023-02-28T22:52:50;26.08;;;15.98;;
69856;SDS011;57147;53.582;10.112;2023-02-28T22:57:54;21.00;;;12.65;;
69856;SDS011;57147;53.582;10.112;2023-02-28T23:02:54;22.80;;;13.05;;
69856;SDS011;57147;53.582;10.112;2023-02-28T23:07:57;24.08;;;12.35;;
69856;SDS011;57147;53.582;10.112;2023-02-28T23:13:00;21.50;;;11.93;;
69856;SDS011;57147;53.582;10.112;2023-02-28T23:18:00;23.05;;;11.38;;
69856;SDS011;57147;53.582;10.112;2023-02-28T23:23:01;23.77;;;13.35;;
69856;SDS011;57147;53.582;10.112;2023-02-28T23:28:05;23.10;;;13.77;;
69856;SDS011;57147;53.582;10.112;2023-02-28T23:33:06;25.40;;;18.23;;
69856;SDS011;57147;53.582;10.112;2023-02-28T23:38:06;21.98;;;12.45;;
69856;SDS011;57147;53.582;10.112;2023-02-28T23:43:10;22.50;;;11.50;;
69856;SDS011;57147;53.582;10.112;2023-02-28T23:48:10;21.05;;;11.73;;
69856;SDS011;57147;53.582;10.112;2023-02-28T23:53:11;22.08;;;11.43;;
69856;SDS011;57147;53.582;10.112;2023-02-28T23:58:15;23.48;;;14.95;;
